createdAt,value
2017-03-03T00:00:45.102Z,49.11
2017-03-03T00:04:44.133Z,49.27
2017-03-03T00:07:07.408Z,49.46
2017-03-03T00:09:08.478Z,50.32
2017-03-03T00:11:09.594Z,50.6
2017-03-03T00:13:24.435Z,51.43
2017-03-03T00:15:47.700Z,51.08
2017-03-03T00:18:10.870Z,50.42
2017-03-03T00:20:34.017Z,50.79
2017-03-03T00:22:57.182Z,50.7
2017-03-03T00:25:03.557Z,50.13
2017-03-03T00:27:18.315Z,51.93
2017-03-03T00:29:41.467Z,51.46
2017-03-03T00:32:04.626Z,51.65
2017-03-03T00:34:27.775Z,51.65
2017-03-03T00:36:50.950Z,51.46
2017-03-03T00:39:14.118Z,51.65
2017-03-03T00:41:37.269Z,51.56
2017-03-03T00:44:00.427Z,51.46
2017-03-03T00:46:01.535Z,51.65
2017-03-03T00:48:24.728Z,51.56
2017-03-03T00:52:15.239Z,51.75
2017-03-03T00:54:38.403Z,51.56
2017-03-03T00:56:53.167Z,51.91
2017-03-03T00:58:46.369Z,52.96
2017-03-03T01:01:09.586Z,53.05
2017-03-03T01:03:32.743Z,53.05
2017-03-03T01:05:33.822Z,52.96
2017-03-03T01:07:56.958Z,52.96
2017-03-03T01:10:20.115Z,53.03
2017-03-03T01:14:10.617Z,53.43
2017-03-03T01:16:20.156Z,51.82
2017-03-03T01:18:43.325Z,51.72
2017-03-03T01:20:52.914Z,52.01
2017-03-03T01:23:07.725Z,51.43
2017-03-03T01:25:22.486Z,51.91
2017-03-03T01:27:46.220Z,51.62
2017-03-03T01:30:00.403Z,51.15
2017-03-03T01:32:23.567Z,51.06
2017-03-03T01:34:46.730Z,51.72
2017-03-03T01:37:09.889Z,53.41
2017-03-03T01:39:19.562Z,53.31
2017-03-03T01:41:29.112Z,54.05
2017-03-03T01:43:52.338Z,53.88
2017-03-03T01:46:15.504Z,53.31
2017-03-03T01:48:38.653Z,52.93
2017-03-03T01:51:01.817Z,53.12
2017-03-03T01:53:24.972Z,52.01
2017-03-03T01:55:48.133Z,52.29
2017-03-03T01:59:47.047Z,52.17
2017-03-03T02:02:01.810Z,52.36
2017-03-03T02:04:02.865Z,52.2
2017-03-03T02:06:26.007Z,52.93
2017-03-03T02:08:49.056Z,53.12
2017-03-03T02:11:12.120Z,52.93
2017-03-03T02:13:35.179Z,52.36
2017-03-03T02:15:44.732Z,52.17
2017-03-03T02:17:45.802Z,52.29
2017-03-03T02:20:08.924Z,52.1
2017-03-03T02:22:18.486Z,52.29
2017-03-03T02:24:28.025Z,52.2
2017-03-03T02:26:51.167Z,51.72
2017-03-03T02:29:05.922Z,52.2
2017-03-03T02:31:29.092Z,52.58
2017-03-03T02:33:30.216Z,52.39
2017-03-03T02:35:53.391Z,52.29
2017-03-03T02:38:08.151Z,51.62
2017-03-03T02:40:22.919Z,51.43
2017-03-03T02:42:37.684Z,51.72
2017-03-03T02:45:00.843Z,51.62
2017-03-03T02:47:24.004Z,51.72
2017-03-03T02:49:47.170Z,52.36
2017-03-03T02:52:10.219Z,53.5
2017-03-03T02:54:33.406Z,53.03
2017-03-03T02:56:56.537Z,53.12
2017-03-03T02:59:19.706Z,52.08
2017-03-03T03:01:26.069Z,53.12
2017-03-03T03:03:40.825Z,54.05
2017-03-03T03:05:55.493Z,54.45
2017-03-03T03:08:18.548Z,54.24
2017-03-03T03:10:41.605Z,54.52
2017-03-03T03:13:04.659Z,54.05
2017-03-03T03:15:05.736Z,54.33
2017-03-03T03:17:28.869Z,54.8
2017-03-03T03:19:30.004Z,55.18
2017-03-03T03:21:53.174Z,55.85
2017-03-03T03:25:43.566Z,56.58
2017-03-03T03:28:06.635Z,55.76
2017-03-03T03:30:29.681Z,56.29
2017-03-03T03:32:52.752Z,56.1
2017-03-03T03:35:15.804Z,55.47
2017-03-03T03:37:30.467Z,55.63
2017-03-03T03:39:53.522Z,55.91
2017-03-03T03:43:52.276Z,56.39
2017-03-03T03:46:15.310Z,57.59
2017-03-03T03:53:17.267Z,55.54
2017-03-03T03:55:32.050Z,55.73
2017-03-03T03:57:46.713Z,56.49
2017-03-03T04:00:09.773Z,56.29
2017-03-03T04:02:32.720Z,56.29
2017-03-03T04:04:55.694Z,55.35
2017-03-03T04:07:18.741Z,55.09
2017-03-03T04:09:41.792Z,54.68
2017-03-03T04:12:04.854Z,55.73
2017-03-03T04:14:27.915Z,55.35
2017-03-03T04:16:50.968Z,55.35
2017-03-03T04:19:05.634Z,55.44
2017-03-03T04:21:28.684Z,55.82
2017-03-03T04:23:51.755Z,56.39
2017-03-03T04:26:14.805Z,56.01
2017-03-03T04:28:29.483Z,55.82
2017-03-03T04:30:52.532Z,54.97
2017-03-03T04:33:15.578Z,55.54
2017-03-03T04:35:38.638Z,55.54
2017-03-03T04:37:53.312Z,55.16
2017-03-03T04:40:16.356Z,55.44
2017-03-03T04:42:39.404Z,55.73
2017-03-03T04:45:02.472Z,55.35
2017-03-03T04:47:25.521Z,55.54
2017-03-03T04:49:40.193Z,54.68
2017-03-03T04:52:03.250Z,55.06
2017-03-03T04:54:26.306Z,54.3
2017-03-03T04:56:49.365Z,53.92
2017-03-03T04:58:50.434Z,54.05
2017-03-03T05:01:13.565Z,53.85
2017-03-03T05:03:36.622Z,53.85
2017-03-03T05:05:59.681Z,53.85
2017-03-03T05:08:22.740Z,53.83
2017-03-03T05:10:45.789Z,54.11
2017-03-03T05:12:55.364Z,54.87
2017-03-03T05:15:19.156Z,54.58
2017-03-03T05:17:27.904Z,54.58
2017-03-03T05:19:50.994Z,54.02
2017-03-03T05:21:52.082Z,53.92
2017-03-03T05:24:06.692Z,54.11
2017-03-03T05:26:21.364Z,53.92
2017-03-03T05:28:44.410Z,53.92
2017-03-03T05:30:37.080Z,53.45
2017-03-03T05:32:51.819Z,53.83
2017-03-03T05:35:06.481Z,53.92
2017-03-03T05:37:29.532Z,53.73
2017-03-03T05:39:52.608Z,53.83
2017-03-03T05:42:15.663Z,53.92
2017-03-03T05:44:30.319Z,53.64
2017-03-03T05:46:53.375Z,53
2017-03-03T05:48:54.456Z,52.72
2017-03-03T05:51:17.573Z,52.24
2017-03-03T05:53:27.095Z,51.86
2017-03-03T05:55:50.176Z,51.67
2017-03-03T05:58:14.256Z,51.1
2017-03-03T06:00:37.272Z,50.81
2017-03-03T06:02:51.967Z,50.43
2017-03-03T06:05:07.656Z,51.01
2017-03-03T06:07:30.720Z,52.45
2017-03-03T06:09:54.798Z,52.08
2017-03-03T06:12:17.971Z,51.98
2017-03-03T06:14:40.928Z,50.43
2017-03-03T06:17:03.987Z,50.53
2017-03-03T06:19:27.061Z,50.15
2017-03-03T06:21:41.712Z,49.32
2017-03-03T06:24:04.862Z,48.91
2017-03-03T06:26:28.015Z,48.85
2017-03-03T06:28:50.998Z,48.37
2017-03-03T06:31:14.026Z,47.34
2017-03-03T06:33:37.198Z,46.94
2017-03-03T06:36:00.368Z,46.4
2017-03-03T06:38:23.517Z,45.28
2017-03-03T06:40:46.672Z,42.35
2017-03-03T06:43:09.836Z,41.02
2017-03-03T06:45:33.119Z,39.44
2017-03-03T06:49:23.730Z,36.81
2017-03-03T06:51:24.853Z,32.86
2017-03-03T06:53:39.782Z,31.51
2017-03-03T06:56:03.114Z,30.3
2017-03-03T06:58:26.504Z,30.02
2017-03-03T07:00:49.927Z,29.16
2017-03-03T07:03:04.929Z,28.97
2017-03-03T07:05:28.344Z,31.32
2017-03-03T07:07:51.733Z,32.73
2017-03-03T07:10:15.095Z,33.29
2017-03-03T07:12:21.672Z,35.36
2017-03-03T07:14:45.038Z,36.77
2017-03-03T07:17:08.391Z,37.92
2017-03-03T07:19:23.321Z,37.9
2017-03-03T07:21:38.254Z,37.99
2017-03-03T07:24:01.559Z,39.51
2017-03-03T07:26:24.853Z,39.61
2017-03-03T07:28:48.103Z,38.37
2017-03-03T07:31:11.376Z,39.32
2017-03-03T07:33:34.643Z,39.97
2017-03-03T07:35:57.905Z,40.18
2017-03-03T07:38:21.149Z,39.8
2017-03-03T07:40:44.390Z,40.06
2017-03-03T07:43:07.621Z,40.18
2017-03-03T07:45:30.816Z,39.8
2017-03-03T07:47:45.648Z,38.56
2017-03-03T07:50:09.837Z,38.29
2017-03-03T07:52:33.602Z,38.28
2017-03-03T07:54:56.828Z,38.49
2017-03-03T07:57:11.691Z,37.73
2017-03-03T07:59:34.904Z,37.65
2017-03-03T08:01:58.168Z,37.27
2017-03-03T08:04:13.040Z,35.86
2017-03-03T08:06:36.360Z,33.41
2017-03-03T08:08:59.685Z,33.39
2017-03-03T08:11:00.848Z,32.84
2017-03-03T08:13:15.897Z,32.17
2017-03-03T08:15:39.323Z,31.98
2017-03-03T08:18:02.764Z,31.31
2017-03-03T08:22:01.970Z,29.72
2017-03-03T08:24:11.665Z,28.01
2017-03-03T08:26:35.184Z,28.11
2017-03-03T08:28:58.659Z,26.14
2017-03-03T08:31:22.215Z,22.74
2017-03-03T08:33:45.824Z,18.73
2017-03-03T08:35:55.602Z,20.83
2017-03-03T08:38:19.336Z,21.2
2017-03-03T08:40:20.545Z,22.7
2017-03-03T08:44:20.018Z,22.71
2017-03-03T08:48:19.424Z,24.13
2017-03-03T08:50:43.132Z,23.57
2017-03-03T08:52:44.455Z,21.67
2017-03-03T08:54:59.683Z,21.67
2017-03-03T08:57:14.953Z,21.38
2017-03-03T08:59:38.626Z,20.81
2017-03-03T09:01:39.961Z,22.41
2017-03-03T09:04:03.654Z,21.47
2017-03-03T09:06:18.873Z,20.42
2017-03-03T09:08:42.514Z,18.81
2017-03-03T09:11:06.214Z,18.06
2017-03-03T09:13:21.463Z,18.82
2017-03-03T09:15:45.150Z,18.81
2017-03-03T09:17:54.934Z,19.11
2017-03-03T09:20:18.692Z,18.82
2017-03-03T09:22:42.412Z,17.97
2017-03-03T09:25:06.163Z,17.4
2017-03-03T09:27:29.913Z,17.69
2017-03-03T09:29:45.271Z,16.74
2017-03-03T09:32:09.063Z,17.21
2017-03-03T09:34:32.870Z,17.5
2017-03-03T09:36:56.651Z,18.08
2017-03-03T09:39:20.446Z,20.26
2017-03-03T09:41:44.233Z,20.64
2017-03-03T09:44:08.033Z,20.45
2017-03-03T09:46:31.783Z,21.01
2017-03-03T09:48:33.044Z,22.53
2017-03-03T09:50:56.796Z,23.12
2017-03-03T09:53:20.526Z,21.78
2017-03-03T09:55:44.236Z,21.95
2017-03-03T09:57:59.537Z,22.25
2017-03-03T10:00:23.247Z,21.11
2017-03-03T10:02:46.976Z,21.32
2017-03-03T10:05:10.712Z,21.32
2017-03-03T10:07:26.051Z,20.36
2017-03-03T10:09:49.813Z,22.25
2017-03-03T10:12:13.595Z,22.55
2017-03-03T10:16:13.179Z,22.06
2017-03-03T10:18:36.961Z,21.98
2017-03-03T10:21:00.708Z,22.46
2017-03-03T10:23:16.055Z,24.15
2017-03-03T10:25:39.795Z,23.97
2017-03-03T10:28:03.532Z,23.68
2017-03-03T10:30:27.272Z,22.84
2017-03-03T10:32:51.040Z,22.08
2017-03-03T10:35:14.804Z,23.5
2017-03-03T10:37:38.564Z,23.6
2017-03-03T10:41:38.086Z,24.18
2017-03-03T10:44:01.822Z,26.08
2017-03-03T10:46:25.557Z,25.41
2017-03-03T10:48:32.474Z,25.51
2017-03-03T10:50:56.222Z,24.75
2017-03-03T10:52:57.964Z,24.94
2017-03-03T10:55:21.763Z,24.86
2017-03-03T10:57:45.497Z,24.76
2017-03-03T11:00:09.255Z,24.66
2017-03-03T11:02:24.580Z,25.13
2017-03-03T11:04:48.318Z,25.23
2017-03-03T11:06:58.118Z,24.85
2017-03-03T11:08:59.347Z,24.08
2017-03-03T11:11:23.140Z,24.28
2017-03-03T11:13:24.424Z,23.61
2017-03-03T11:15:48.150Z,23.03
2017-03-03T11:18:11.927Z,22.94
2017-03-03T11:20:13.179Z,23.88
2017-03-03T11:22:36.989Z,23.42
2017-03-03T11:24:46.738Z,23.22
2017-03-03T11:27:10.538Z,23.71
2017-03-03T11:29:34.302Z,22.85
2017-03-03T11:31:49.635Z,23.5
2017-03-03T11:34:13.398Z,24.19
2017-03-03T11:36:37.150Z,24.18
2017-03-03T11:39:00.904Z,23.42
2017-03-03T11:41:24.645Z,23.14
2017-03-03T11:43:48.390Z,22.29
2017-03-03T11:46:12.166Z,22.86
2017-03-03T11:48:27.498Z,23.05
2017-03-03T11:50:51.254Z,22.76
2017-03-03T11:58:02.386Z,22.76
2017-03-03T12:00:26.198Z,23.13
2017-03-03T12:02:49.975Z,23.32
2017-03-03T12:05:05.241Z,23.13
2017-03-03T12:07:29.002Z,22.75
2017-03-03T12:09:52.776Z,22.56
2017-03-03T12:12:16.555Z,23.42
2017-03-03T12:14:40.322Z,23.71
2017-03-03T12:17:04.086Z,23.32
2017-03-03T12:19:27.827Z,23.61
2017-03-03T12:21:34.720Z,23.71
2017-03-03T12:23:58.457Z,23.52
2017-03-03T12:26:13.782Z,23.9
2017-03-03T12:28:29.123Z,23.71
2017-03-03T12:30:52.893Z,24.38
2017-03-03T12:33:16.679Z,23.8
2017-03-03T12:35:32.007Z,24.48
2017-03-03T12:37:55.765Z,24.09
2017-03-03T12:40:19.504Z,24.46
2017-03-03T12:42:43.251Z,24.19
2017-03-03T12:45:06.995Z,23.71
2017-03-03T12:47:30.790Z,24.28
2017-03-03T12:49:32.051Z,25.43
2017-03-03T12:51:55.827Z,23.8
2017-03-03T12:53:57.064Z,22.85
2017-03-03T12:56:12.414Z,23.42
2017-03-03T12:58:13.659Z,23.22
2017-03-03T13:00:37.428Z,23.71
2017-03-03T13:03:01.174Z,23.9
2017-03-03T13:05:16.535Z,23.88
2017-03-03T13:07:40.299Z,24.18
2017-03-03T13:10:04.059Z,23.98
2017-03-03T13:12:19.389Z,23.22
2017-03-03T13:14:43.128Z,23.52
2017-03-03T13:16:52.884Z,23.52
2017-03-03T13:19:16.651Z,23.6
2017-03-03T13:21:40.399Z,22.55
2017-03-03T13:24:04.075Z,23.32
2017-03-03T13:26:27.803Z,22.08
2017-03-03T13:28:51.545Z,22.76
2017-03-03T13:30:52.889Z,21.99
2017-03-03T13:36:28.186Z,22.95
2017-03-03T13:38:51.978Z,23.32
2017-03-03T13:41:01.738Z,22.46
2017-03-03T13:43:25.551Z,21.98
2017-03-03T13:45:49.325Z,21.8
2017-03-03T13:48:13.081Z,21.21
2017-03-03T13:50:36.845Z,21.69
2017-03-03T13:53:00.624Z,21.51
2017-03-03T13:55:10.395Z,19.98
2017-03-03T13:57:20.189Z,20.73
2017-03-03T14:01:19.802Z,21.68
2017-03-03T14:03:43.606Z,21.57
2017-03-03T14:06:07.350Z,22.06
2017-03-03T14:08:31.081Z,21.59
2017-03-03T14:10:54.794Z,21.97
2017-03-03T14:13:10.097Z,21.97
2017-03-03T14:15:33.861Z,22.91
2017-03-03T14:17:57.599Z,22.92
2017-03-03T14:20:21.363Z,23.28
2017-03-03T14:22:45.101Z,24.81
2017-03-03T14:25:08.841Z,24.43
2017-03-03T14:27:32.571Z,23.77
2017-03-03T14:29:56.303Z,23.77
2017-03-03T14:32:20.024Z,23.48
2017-03-03T14:34:43.734Z,24.52
2017-03-03T14:36:50.586Z,23.48
2017-03-03T14:39:00.358Z,25.1
2017-03-03T14:41:24.046Z,25.1
2017-03-03T14:43:47.729Z,24.91
2017-03-03T14:46:11.411Z,24.9
2017-03-03T14:48:35.107Z,25.38
2017-03-03T14:50:58.791Z,25.01
2017-03-03T14:53:22.480Z,24.45
2017-03-03T14:55:46.179Z,25.12
2017-03-03T14:58:10.857Z,25.02
2017-03-03T15:00:35.572Z,25.78
2017-03-03T15:02:59.329Z,26.25
2017-03-03T15:05:23.164Z,26.35
2017-03-03T15:07:46.986Z,26.07
2017-03-03T15:10:10.682Z,25.3
2017-03-03T15:14:10.226Z,26.07
2017-03-03T15:16:19.960Z,26.35
2017-03-03T15:18:43.680Z,27.31
2017-03-03T15:21:07.382Z,27.87
2017-03-03T15:23:31.034Z,26.74
2017-03-03T15:25:54.715Z,26.93
2017-03-03T15:28:18.398Z,26.45
2017-03-03T15:30:25.250Z,27.31
2017-03-03T15:32:32.099Z,27.87
2017-03-03T15:34:33.333Z,27.3
2017-03-03T15:38:32.807Z,27.87
2017-03-03T15:40:56.504Z,27.97
2017-03-03T15:43:20.163Z,28.64
2017-03-03T15:45:43.825Z,28.08
2017-03-03T15:47:59.089Z,28.16
2017-03-03T15:50:22.734Z,28.92
2017-03-03T15:52:23.970Z,28.08
2017-03-03T15:54:39.248Z,28.55
2017-03-03T15:57:02.917Z,28.74
2017-03-03T15:59:26.549Z,29.12
2017-03-03T16:01:50.801Z,28.56
2017-03-03T16:04:06.020Z,28.66
2017-03-03T16:06:29.640Z,29.23
2017-03-03T16:08:39.361Z,29.33
2017-03-03T16:11:03.144Z,29.98
2017-03-03T16:13:26.907Z,29.41
2017-03-03T16:15:50.578Z,29.42
2017-03-03T16:18:14.254Z,29.52
2017-03-03T16:20:37.932Z,29.71
2017-03-03T16:23:01.603Z,29.6
2017-03-03T16:25:25.268Z,30.18
2017-03-03T16:27:26.533Z,29.98
2017-03-03T16:29:41.807Z,30.27
2017-03-03T16:31:57.064Z,30.27
2017-03-03T16:34:12.342Z,30.84
2017-03-03T16:36:36.027Z,30.94
2017-03-03T16:38:59.789Z,31.32
2017-03-03T16:41:23.459Z,31.61
2017-03-03T16:43:47.130Z,32.65
2017-03-03T16:45:56.901Z,32.65
2017-03-03T16:48:20.556Z,32.46
2017-03-03T16:50:44.238Z,32.84
2017-03-03T16:53:07.911Z,32.63
2017-03-03T16:55:31.568Z,32.92
2017-03-03T16:57:55.133Z,33.49
2017-03-03T17:00:18.697Z,33.4
2017-03-03T17:02:42.277Z,33.97
2017-03-03T17:04:49.081Z,34.16
2017-03-03T17:07:04.220Z,34.63
2017-03-03T17:09:27.796Z,34.72
2017-03-03T17:11:30.020Z,34.91
2017-03-03T17:15:29.398Z,35.39
2017-03-03T17:17:53.063Z,35.1
2017-03-03T17:20:16.722Z,35.2
2017-03-03T17:22:40.310Z,35
2017-03-03T17:25:04.888Z,35.47
2017-03-03T17:27:15.431Z,35.39
2017-03-03T17:29:39.019Z,35.68
2017-03-03T17:32:02.591Z,35.29
2017-03-03T17:34:26.153Z,35.49
2017-03-03T17:36:49.736Z,35.2
2017-03-03T17:39:13.302Z,35.49
2017-03-03T17:41:28.482Z,35.96
2017-03-03T17:43:52.049Z,35.94
2017-03-03T17:46:15.613Z,36.43
2017-03-03T17:48:39.182Z,35.85
2017-03-03T17:51:02.752Z,36.33
2017-03-03T17:53:26.323Z,36.52
2017-03-03T17:55:27.628Z,36.71
2017-03-03T17:57:28.855Z,36.43
2017-03-03T17:59:52.491Z,36.8
2017-03-03T18:02:16.066Z,37.48
2017-03-03T18:04:39.638Z,39.48
2017-03-03T18:07:03.128Z,39
2017-03-03T18:09:26.666Z,38.62
2017-03-03T18:11:50.224Z,37.76
2017-03-03T18:14:13.715Z,37.84
2017-03-03T18:16:37.166Z,37.74
2017-03-03T18:19:00.615Z,37.36
2017-03-03T18:21:24.079Z,37.36
2017-03-03T18:23:47.504Z,37.65
2017-03-03T18:26:10.950Z,37.65
2017-03-03T18:28:34.410Z,37.84
2017-03-03T18:30:57.860Z,37.84
2017-03-03T18:32:59.071Z,37.55
2017-03-03T18:35:22.518Z,37.36
2017-03-03T18:37:23.699Z,37.84
2017-03-03T18:39:47.196Z,37.93
2017-03-03T18:42:11.735Z,37.93
2017-03-03T18:44:35.189Z,38.3
2017-03-03T18:46:59.047Z,39.54
2017-03-03T18:49:22.517Z,39.44
2017-03-03T18:51:46.030Z,38.49
2017-03-03T18:54:09.452Z,38.39
2017-03-03T18:56:32.914Z,38.58
2017-03-03T18:58:56.483Z,39.47
2017-03-03T19:01:11.543Z,39.44
2017-03-03T19:03:26.610Z,40.11
2017-03-03T19:05:51.121Z,40.78
2017-03-03T19:09:50.353Z,42.97
2017-03-03T19:12:13.884Z,44.48
2017-03-03T19:14:29.055Z,45.63
2017-03-03T19:16:52.521Z,46.56
2017-03-03T19:19:15.988Z,46.39
2017-03-03T19:21:39.464Z,46.3
2017-03-03T19:24:02.939Z,45.53
2017-03-03T19:26:17.998Z,45.7
2017-03-03T19:28:41.477Z,46.18
2017-03-03T19:31:04.939Z,45.79
2017-03-03T19:33:20.000Z,45.97
2017-03-03T19:35:43.470Z,46.25
2017-03-03T19:38:06.940Z,46.73
2017-03-03T19:40:30.308Z,46.44
2017-03-03T19:42:53.657Z,46.54
2017-03-03T19:45:17.021Z,46.63
2017-03-03T19:47:40.389Z,46.44
2017-03-03T19:50:03.764Z,46.34
2017-03-03T19:52:27.117Z,45.87
2017-03-03T19:54:50.489Z,46.34
2017-03-03T19:57:13.844Z,46.25
2017-03-03T19:59:37.213Z,47.3
2017-03-03T20:02:00.568Z,47.58
2017-03-03T20:04:10.226Z,47.78
2017-03-03T20:06:33.620Z,48.35
2017-03-03T20:08:56.960Z,48.25
2017-03-03T20:11:20.326Z,48.54
2017-03-03T20:13:43.689Z,48.35
2017-03-03T20:16:07.050Z,48.44
2017-03-03T20:18:22.019Z,47.68
2017-03-03T20:22:21.148Z,48.73
2017-03-03T20:24:44.600Z,48.44
2017-03-03T20:26:59.564Z,48.35
2017-03-03T20:29:22.934Z,48.25
2017-03-03T20:33:22.060Z,48.54
2017-03-03T20:35:45.517Z,48.35
2017-03-03T20:38:00.485Z,49.02
2017-03-03T20:41:59.716Z,49.02
2017-03-03T20:45:59.707Z,49.21
2017-03-03T20:48:23.210Z,49.02
2017-03-03T20:50:46.663Z,48.83
2017-03-03T20:53:10.033Z,49.4
2017-03-03T20:55:33.390Z,49.49
2017-03-03T20:57:56.751Z,49.49
2017-03-03T21:00:20.133Z,49.3
2017-03-03T21:02:43.479Z,49.21
2017-03-03T21:04:58.449Z,49.4
2017-03-03T21:07:21.929Z,49.11
2017-03-03T21:09:45.290Z,49.3
2017-03-03T21:12:08.653Z,49.4
2017-03-03T21:14:32.030Z,50.07
2017-03-03T21:16:55.385Z,49.97
2017-03-03T21:19:18.868Z,49.3
2017-03-03T21:21:42.221Z,49.11
2017-03-03T21:24:05.593Z,49.21
2017-03-03T21:28:04.710Z,49.21
2017-03-03T21:30:28.169Z,49.49
2017-03-03T21:32:29.390Z,49.49
2017-03-03T21:34:52.771Z,49.11
2017-03-03T21:38:52.062Z,49.59
2017-03-03T21:41:15.443Z,49.4
2017-03-03T21:43:38.822Z,49.49
2017-03-03T21:46:02.206Z,49.78
2017-03-03T21:48:11.861Z,49.78
2017-03-03T21:50:35.302Z,49.97
2017-03-03T21:52:58.661Z,49.78
2017-03-03T21:55:08.321Z,50.45
2017-03-03T21:57:31.778Z,50.26
2017-03-03T21:59:32.993Z,50.16
2017-03-03T22:01:56.388Z,50.07
2017-03-03T22:04:19.760Z,50.92
2017-03-03T22:06:43.119Z,51.31
2017-03-03T22:08:57.979Z,51.78
2017-03-03T22:11:21.355Z,51.78
2017-03-03T22:13:44.700Z,51.12
2017-03-03T22:16:08.072Z,51.59
2017-03-03T22:18:31.436Z,53.28
2017-03-03T22:20:54.821Z,52.33
2017-03-03T22:22:56.009Z,52.14
2017-03-03T22:25:19.428Z,51.85
2017-03-03T22:29:18.575Z,52.14
2017-03-03T22:31:33.503Z,52.23
2017-03-03T22:33:56.864Z,51.78
2017-03-03T22:36:20.224Z,51.59
2017-03-03T22:38:43.593Z,51.68
2017-03-03T22:41:06.956Z,51.78
2017-03-03T22:43:08.102Z,51.97
2017-03-03T22:45:18.200Z,51.88
2017-03-03T22:47:41.622Z,51.97
2017-03-03T22:49:42.792Z,51.68
2017-03-03T22:52:06.231Z,51.56
2017-03-03T22:54:29.635Z,51.85
2017-03-03T22:56:30.817Z,51.68
2017-03-03T22:58:54.206Z,51.56
2017-03-03T23:01:17.567Z,52.33
2017-03-03T23:03:18.713Z,52.42
2017-03-03T23:05:33.680Z,52.33
2017-03-03T23:07:57.045Z,52.33
2017-03-03T23:10:20.410Z,52.33
2017-03-03T23:12:35.387Z,51.95
2017-03-03T23:14:58.744Z,52.14
2017-03-03T23:17:22.113Z,52.04
2017-03-03T23:19:45.480Z,52.61
2017-03-03T23:22:08.841Z,51.85
2017-03-03T23:24:32.194Z,52.23
2017-03-03T23:26:55.466Z,52.33
2017-03-03T23:30:46.876Z,52.04
2017-03-03T23:33:09.458Z,52.33
2017-03-03T23:35:32.805Z,52.8
2017-03-03T23:37:43.210Z,52.42
2017-03-03T23:40:06.535Z,52.61
2017-03-03T23:42:21.498Z,52.78
2017-03-03T23:46:20.613Z,53.06
2017-03-03T23:48:43.976Z,52.49
2017-03-03T23:50:53.582Z,52.78
2017-03-03T23:52:47.104Z,53.16
2017-03-03T23:55:10.447Z,53.64
2017-03-03T23:57:20.816Z,53.64
2017-03-03T23:59:44.182Z,53.35
